createdAt,value
2023-01-29T00:05:16.685Z,98990.69
2023-01-29T00:10:28.413Z,98987.22
2023-01-29T00:15:32.062Z,98999.16
2023-01-29T00:20:35.746Z,98991.63
2023-01-29T00:25:40.978Z,98993.25
2023-01-29T00:30:44.585Z,98995.81
2023-01-29T00:35:48.347Z,99008.41
2023-01-29T00:41:11.028Z,99011.91
2023-01-29T00:46:15.077Z,99015.16
2023-01-29T00:51:18.812Z,99012.22
2023-01-29T00:56:23.954Z,99022.00
2023-01-29T01:01:41.441Z,99009.19
2023-01-29T01:06:45.303Z,99026.13
2023-01-29T01:11:51.292Z,99016.78
2023-01-29T01:16:55.003Z,99006.91
2023-01-29T01:21:58.702Z,99017.22
2023-01-29T01:27:03.813Z,99015.16
2023-01-29T01:32:07.849Z,99031.97
2023-01-29T01:37:11.634Z,99025.50
2023-01-29T01:42:16.892Z,99034.56
2023-01-29T01:47:24.433Z,99033.38
2023-01-29T01:52:28.388Z,99037.13
2023-01-29T01:57:34.251Z,99037.66
2023-01-29T02:02:57.155Z,99031.69
2023-01-29T02:08:18.565Z,99038.88
2023-01-29T02:13:24.620Z,99027.44
2023-01-29T02:18:28.351Z,99043.03
2023-01-29T02:23:55.681Z,99046.41
2023-01-29T02:29:22.720Z,99052.75
2023-01-29T02:34:55.405Z,99051.72
2023-01-29T02:40:08.952Z,99043.75
2023-01-29T02:45:17.250Z,99054.06
2023-01-29T02:50:27.647Z,99046.41
2023-01-29T02:55:37.493Z,99050.44
2023-01-29T03:00:47.228Z,99053.22
2023-01-29T03:05:58.713Z,99056.59
2023-01-29T03:11:06.334Z,99051.41
2023-01-29T03:16:19.943Z,99066.81
2023-01-29T03:21:47.913Z,99078.34
2023-01-29T03:27:10.973Z,99077.63
2023-01-29T03:32:24.093Z,99082.38
2023-01-29T03:37:35.366Z,99082.88
2023-01-29T03:42:52.138Z,99086.00
2023-01-29T03:48:07.911Z,99086.38
2023-01-29T03:53:22.567Z,99093.03
2023-01-29T03:58:36.653Z,99098.81
2023-01-29T04:03:49.800Z,99109.66
2023-01-29T04:09:00.123Z,99101.22
2023-01-29T04:14:05.124Z,99104.88
2023-01-29T04:19:10.391Z,99120.09
2023-01-29T04:24:17.599Z,99110.84
2023-01-29T04:29:38.227Z,99126.19
2023-01-29T04:34:57.002Z,99128.81
2023-01-29T04:40:12.426Z,99129.56
2023-01-29T04:45:24.110Z,99132.97
2023-01-29T04:50:36.080Z,99131.31
2023-01-29T04:55:46.144Z,99136.28
2023-01-29T05:00:54.141Z,99144.38
2023-01-29T05:06:01.807Z,99129.06
2023-01-29T05:11:06.937Z,99152.75
2023-01-29T05:16:16.555Z,99148.53
2023-01-29T05:21:23.580Z,99151.63
2023-01-29T05:26:45.866Z,99151.38
2023-01-29T05:31:49.480Z,99156.09
2023-01-29T05:36:55.300Z,99154.59
2023-01-29T05:41:58.908Z,99165.63
2023-01-29T05:47:03.123Z,99161.38
2023-01-29T05:52:08.340Z,99171.53
2023-01-29T05:57:12.030Z,99183.53
2023-01-29T06:02:15.654Z,99177.53
2023-01-29T06:07:20.938Z,99181.25
2023-01-29T06:12:24.600Z,99185.69
2023-01-29T06:17:28.573Z,99184.00
2023-01-29T06:22:35.061Z,99193.69
2023-01-29T06:27:39.312Z,99192.28
2023-01-29T06:32:43.219Z,99193.34
2023-01-29T06:37:48.441Z,99195.63
2023-01-29T06:42:52.080Z,99204.78
2023-01-29T06:47:55.884Z,99205.25
2023-01-29T06:53:02.246Z,99210.78
2023-01-29T06:58:09.450Z,99219.53
2023-01-29T07:03:13.188Z,99215.22
2023-01-29T07:08:18.460Z,99219.72
2023-01-29T07:13:22.323Z,99229.84
2023-01-29T07:18:26.116Z,99228.28
2023-01-29T07:23:31.397Z,99237.56
2023-01-29T07:28:39.562Z,99231.56
2023-01-29T07:33:45.359Z,99239.72
2023-01-29T07:38:52.800Z,99242.16
2023-01-29T07:43:56.572Z,99250.44
2023-01-29T07:49:01.057Z,99247.88
2023-01-29T07:54:06.688Z,99260.28
2023-01-29T07:59:10.559Z,99260.06
2023-01-29T08:04:14.806Z,99264.28
2023-01-29T08:09:20.299Z,99262.81
2023-01-29T08:14:24.742Z,99256.91
2023-01-29T08:19:28.626Z,99270.63
2023-01-29T08:24:47.682Z,99268.00
2023-01-29T08:29:57.726Z,99268.06
2023-01-29T08:35:01.343Z,99274.94
2023-01-29T08:40:12.443Z,99286.00
2023-01-29T08:45:16.513Z,99281.56
2023-01-29T08:50:21.008Z,99287.94
2023-01-29T08:55:26.315Z,99282.78
2023-01-29T09:00:30.132Z,99280.34
2023-01-29T09:05:34.338Z,99285.47
2023-01-29T09:10:39.679Z,99276.06
2023-01-29T09:15:43.477Z,99279.78
2023-01-29T09:20:47.778Z,99283.66
2023-01-29T09:25:53.150Z,99283.28
2023-01-29T09:30:57.040Z,99280.69
2023-01-29T09:36:00.986Z,99283.00
2023-01-29T09:41:17.362Z,99274.28
2023-01-29T09:46:25.326Z,99270.97
2023-01-29T09:51:36.497Z,99276.44
2023-01-29T09:56:43.697Z,99266.00
2023-01-29T10:01:56.675Z,99274.63
2023-01-29T10:07:16.435Z,99269.19
2023-01-29T10:12:34.964Z,99259.97
2023-01-29T10:17:56.888Z,99269.53
2023-01-29T10:23:17.032Z,99272.94
2023-01-29T10:28:25.823Z,99273.38
2023-01-29T10:33:49.323Z,99268.19
2023-01-29T10:39:08.509Z,99258.66
2023-01-29T10:44:39.726Z,99256.78
2023-01-29T10:50:01.801Z,99256.03
2023-01-29T10:55:22.583Z,99246.66
2023-01-29T11:00:32.944Z,99244.59
2023-01-29T11:05:43.823Z,99240.25
2023-01-29T11:10:55.994Z,99235.47
2023-01-29T11:16:01.258Z,99222.91
2023-01-29T11:21:07.045Z,99221.72
2023-01-29T11:26:36.683Z,99221.72
2023-01-29T11:31:42.146Z,99225.34
2023-01-29T11:36:46.204Z,99218.81
2023-01-29T11:41:54.255Z,99210.97
2023-01-29T11:47:12.285Z,99209.44
2023-01-29T11:52:23.830Z,99209.53
2023-01-29T11:57:33.880Z,99210.50
2023-01-29T12:02:43.913Z,99201.88
2023-01-29T12:07:50.746Z,99206.22
2023-01-29T12:13:06.399Z,99202.78
2023-01-29T12:18:21.112Z,99204.25
2023-01-29T12:23:34.556Z,99215.56
2023-01-29T12:28:52.731Z,99211.06
2023-01-29T12:34:06.343Z,99215.56
2023-01-29T12:39:12.793Z,99216.25
2023-01-29T12:44:21.446Z,99215.13
2023-01-29T12:49:30.192Z,99211.84
2023-01-29T12:54:40.007Z,99223.16
2023-01-29T12:59:48.970Z,99228.50
2023-01-29T13:05:00.907Z,99233.84
2023-01-29T13:10:09.928Z,99236.97
2023-01-29T13:15:24.088Z,99245.75
2023-01-29T13:20:33.680Z,99239.84
2023-01-29T13:25:37.540Z,99248.75
2023-01-29T13:30:41.667Z,99240.19
2023-01-29T13:35:47.888Z,99239.22
2023-01-29T13:40:52.462Z,99248.19
2023-01-29T13:45:56.829Z,99247.00
2023-01-29T13:51:06.113Z,99251.13
2023-01-29T13:56:43.485Z,99253.78
2023-01-29T14:02:05.423Z,99258.81
2023-01-29T14:07:51.436Z,99260.00
2023-01-29T14:12:56.641Z,99255.88
2023-01-29T14:18:16.107Z,99258.78
2023-01-29T14:23:35.873Z,99260.53
2023-01-29T14:28:40.220Z,99259.25
2023-01-29T14:33:44.801Z,99263.88
2023-01-29T14:38:52.748Z,99270.78
2023-01-29T14:44:36.398Z,99277.75
2023-01-29T14:49:54.703Z,99282.69
2023-01-29T14:55:04.569Z,99278.84
2023-01-29T15:00:20.342Z,99276.75
2023-01-29T15:05:28.995Z,99279.66
2023-01-29T15:10:41.598Z,99286.88
2023-01-29T15:15:51.566Z,99281.47
2023-01-29T15:21:05.553Z,99287.88
2023-01-29T15:26:16.315Z,99287.75
2023-01-29T15:31:20.310Z,99287.47
2023-01-29T15:36:26.850Z,99286.00
2023-01-29T15:41:32.304Z,99301.50
2023-01-29T15:46:40.552Z,99305.56
2023-01-29T15:51:45.129Z,99304.59
2023-01-29T15:56:53.303Z,99311.75
2023-01-29T16:01:57.808Z,99313.88
2023-01-29T16:07:03.886Z,99316.44
2023-01-29T16:12:13.992Z,99316.44
2023-01-29T16:17:26.123Z,99329.66
2023-01-29T16:22:34.335Z,99322.59
2023-01-29T16:27:43.513Z,99335.19
2023-01-29T16:32:49.063Z,99324.06
2023-01-29T16:37:53.924Z,99321.56
2023-01-29T16:43:31.337Z,99328.03
2023-01-29T16:48:38.207Z,99334.50
2023-01-29T16:53:44.824Z,99334.25
2023-01-29T16:58:56.294Z,99339.44
2023-01-29T17:04:08.421Z,99337.13
2023-01-29T17:09:25.069Z,99337.00
2023-01-29T17:14:32.515Z,99335.63
2023-01-29T17:19:37.678Z,99333.84
2023-01-29T17:24:41.844Z,99336.91
2023-01-29T17:29:47.592Z,99334.34
2023-01-29T17:34:52.454Z,99342.38
2023-01-29T17:40:01.926Z,99338.00
2023-01-29T17:45:12.670Z,99344.06
2023-01-29T17:50:24.397Z,99333.72
2023-01-29T17:55:29.164Z,99343.94
2023-01-29T18:00:35.620Z,99341.25
2023-01-29T18:05:42.714Z,99348.31
2023-01-29T18:10:48.285Z,99348.38
2023-01-29T18:15:57.190Z,99353.50
2023-01-29T18:21:01.435Z,99351.53
2023-01-29T18:26:07.421Z,99355.50
2023-01-29T18:31:15.652Z,99351.94
2023-01-29T18:36:19.754Z,99351.47
2023-01-29T18:41:23.654Z,99343.94
2023-01-29T18:46:32.019Z,99348.78
2023-01-29T18:51:36.239Z,99349.56
2023-01-29T18:57:06.234Z,99350.88
2023-01-29T19:02:08.691Z,99352.47
2023-01-29T19:07:12.928Z,99346.56
2023-01-29T19:12:18.485Z,99351.66
2023-01-29T19:17:26.447Z,99354.81
2023-01-29T19:22:30.689Z,99357.19
2023-01-29T19:27:37.094Z,99354.81
2023-01-29T19:32:46.025Z,99344.59
2023-01-29T19:37:49.855Z,99344.59
2023-01-29T19:42:56.325Z,99346.88
2023-01-29T19:48:01.790Z,99341.22
2023-01-29T19:53:05.726Z,99343.44
2023-01-29T19:58:12.676Z,99342.50
2023-01-29T20:03:17.991Z,99352.25
2023-01-29T20:08:24.071Z,99346.59
2023-01-29T20:13:28.081Z,99360.56
2023-01-29T20:18:34.188Z,99360.13
2023-01-29T20:23:39.071Z,99358.06
2023-01-29T20:28:43.479Z,99360.41
2023-01-29T20:33:49.293Z,99363.78
2023-01-29T20:38:53.142Z,99354.19
2023-01-29T20:43:59.958Z,99360.88
2023-01-29T20:49:07.119Z,99352.94
2023-01-29T20:54:12.771Z,99357.72
2023-01-29T20:59:17.096Z,99371.91
2023-01-29T21:04:23.419Z,99371.09
2023-01-29T21:09:27.195Z,99366.13
2023-01-29T21:14:31.059Z,99362.75
2023-01-29T21:19:36.621Z,99371.22
2023-01-29T21:24:40.464Z,99355.00
2023-01-29T21:29:44.325Z,99366.00
2023-01-29T21:34:52.286Z,99355.25
2023-01-29T21:39:56.290Z,99349.94
2023-01-29T21:44:59.919Z,99351.81
2023-01-29T21:50:05.572Z,99353.16
2023-01-29T21:55:09.920Z,99338.72
2023-01-29T22:00:14.695Z,99332.97
2023-01-29T22:05:20.557Z,99328.28
2023-01-29T22:10:24.394Z,99322.88
2023-01-29T22:15:28.416Z,99325.44
2023-01-29T22:20:33.588Z,99316.59
2023-01-29T22:25:37.699Z,99324.34
2023-01-29T22:30:41.520Z,99321.28
2023-01-29T22:35:46.732Z,99315.06
2023-01-29T22:40:51.576Z,99314.53
2023-01-29T22:45:56.681Z,99316.75
2023-01-29T22:51:10.907Z,99308.91
2023-01-29T22:56:14.790Z,99299.47
2023-01-29T23:01:19.652Z,99288.72
2023-01-29T23:06:25.147Z,99284.59
2023-01-29T23:11:28.834Z,99276.56
2023-01-29T23:16:32.676Z,99298.06
2023-01-29T23:21:37.993Z,99287.09
2023-01-29T23:26:59.136Z,99301.72
2023-01-29T23:32:03.874Z,99297.66
2023-01-29T23:37:09.536Z,99286.59
2023-01-29T23:42:13.341Z,99293.00
2023-01-29T23:47:17.057Z,99283.78
2023-01-29T23:52:22.331Z,99282.91
2023-01-29T23:57:26.134Z,99284.28
